JBU868 KPBI-KHPN
Flight info
| Callsign | JBU868 |
|---|---|
| Flight time | 2h 36m |
| Altitude | 37000 |
| Route | SLIDZ3 LENDS PELCN Y309 FLRDA SAGGY CHIEZ Q161 KALDA Q108 SIE BOUNO5 |
| Aircraft | A320/M-SDE3FGHIRWY/LB1 |
Departure
| Time | 2026-04-23 12:38 |
|---|---|
| Airport | Palm Beach International Airport (KPBI) |
Arrival
| Time | 2026-04-23 15:15 |
|---|---|
| Airport | Westchester County Airport (KHPN) |
| Time | Latitude | Longitude | Altitude | Speed | Heading |
|---|---|---|---|---|---|
| 2026-04-23 11:45 | 26.68529 | -80.08893 | 18 ft | 0 kts | 346° |
| 2026-04-23 12:25 | 26.68515 | -80.08889 | 18 ft | 2 kts | 346° |
| 2026-04-23 12:25 | 26.68501 | -80.08885 | 18 ft | 2 kts | 346° |
| 2026-04-23 12:25 | 26.68486 | -80.08881 | 18 ft | 2 kts | 346° |
| 2026-04-23 12:25 | 26.68472 | -80.08877 | 18 ft | 2 kts | 346° |
| 2026-04-23 12:26 | 26.68457 | -80.08873 | 18 ft | 1 kts | 346° |
| 2026-04-23 12:26 | 26.68448 | -80.08870 | 18 ft | 2 kts | 324° |
| 2026-04-23 12:26 | 26.68440 | -80.08858 | 18 ft | 0 kts | 280° |
| 2026-04-23 12:26 | 26.68440 | -80.08855 | 18 ft | 0 kts | 278° |
| 2026-04-23 12:27 | 26.68447 | -80.08888 | 18 ft | 7 kts | 287° |
| 2026-04-23 12:27 | 26.68471 | -80.08935 | 18 ft | 7 kts | 311° |
| 2026-04-23 12:27 | 26.68506 | -80.08966 | 18 ft | 0 kts | 329° |
| 2026-04-23 12:32 | 26.68509 | -80.08968 | 18 ft | 0 kts | 309° |
| 2026-04-23 12:32 | 26.68509 | -80.08972 | 18 ft | 0 kts | 264° |
| 2026-04-23 12:32 | 26.68486 | -80.09000 | 18 ft | 7 kts | 225° |
| 2026-04-23 12:33 | 26.68455 | -80.09056 | 18 ft | 9 kts | 255° |
| 2026-04-23 12:33 | 26.68423 | -80.09131 | 18 ft | 11 kts | 231° |
| 2026-04-23 12:33 | 26.68375 | -80.09214 | 18 ft | 13 kts | 249° |
| 2026-04-23 12:33 | 26.68366 | -80.09325 | 18 ft | 15 kts | 271° |
| 2026-04-23 12:34 | 26.68369 | -80.09451 | 18 ft | 16 kts | 272° |
| 2026-04-23 12:34 | 26.68374 | -80.09587 | 18 ft | 18 kts | 273° |
| 2026-04-23 12:34 | 26.68381 | -80.09734 | 18 ft | 19 kts | 274° |
| 2026-04-23 12:34 | 26.68391 | -80.09890 | 18 ft | 20 kts | 274° |
| 2026-04-23 12:35 | 26.68398 | -80.10049 | 18 ft | 21 kts | 272° |
| 2026-04-23 12:35 | 26.68404 | -80.10209 | 18 ft | 19 kts | 272° |
| 2026-04-23 12:35 | 26.68411 | -80.10361 | 19 ft | 19 kts | 272° |
| 2026-04-23 12:35 | 26.68418 | -80.10488 | 21 ft | 15 kts | 274° |
| 2026-04-23 12:36 | 26.68423 | -80.10610 | 21 ft | 15 kts | 272° |
| 2026-04-23 12:36 | 26.68428 | -80.10723 | 21 ft | 13 kts | 272° |
| 2026-04-23 12:36 | 26.68427 | -80.10797 | 21 ft | 7 kts | 249° |
| 2026-04-23 12:36 | 26.68378 | -80.10822 | 21 ft | 9 kts | 187° |
| 2026-04-23 12:37 | 26.68325 | -80.10804 | 21 ft | 7 kts | 124° |
| 2026-04-23 12:37 | 26.68312 | -80.10625 | 21 ft | 54 kts | 92° |
| 2026-04-23 12:37 | 26.68284 | -80.09945 | 18 ft | 119 kts | 93° |
| 2026-04-23 12:37 | 26.68232 | -80.08813 | 58 ft | 166 kts | 94° |
| 2026-04-23 12:38 | 26.68145 | -80.07509 | 607 ft | 169 kts | 92° |
| 2026-04-23 12:38 | 26.68090 | -80.06222 | 1348 ft | 167 kts | 91° |
| 2026-04-23 12:38 | 26.68046 | -80.04952 | 1994 ft | 170 kts | 91° |
| 2026-04-23 12:38 | 26.67997 | -80.03576 | 2438 ft | 186 kts | 91° |
| 2026-04-23 12:39 | 26.67941 | -80.02082 | 2816 ft | 205 kts | 92° |
| 2026-04-23 12:39 | 26.67874 | -80.00419 | 3189 ft | 225 kts | 92° |
| 2026-04-23 12:39 | 26.68040 | -79.98608 | 3615 ft | 244 kts | 69° |
| 2026-04-23 12:39 | 26.69011 | -79.97003 | 4155 ft | 259 kts | 46° |
| 2026-04-23 12:40 | 26.70310 | -79.95625 | 4915 ft | 263 kts | 45° |
| 2026-04-23 12:40 | 26.71640 | -79.94189 | 5680 ft | 268 kts | 45° |
| 2026-04-23 12:40 | 26.72970 | -79.92735 | 6428 ft | 272 kts | 45° |
| 2026-04-23 12:40 | 26.74308 | -79.91249 | 7186 ft | 276 kts | 45° |
| 2026-04-23 12:41 | 26.75659 | -79.89743 | 7976 ft | 278 kts | 45° |
| 2026-04-23 12:41 | 26.77036 | -79.88205 | 8754 ft | 280 kts | 44° |
| 2026-04-23 12:41 | 26.78420 | -79.86655 | 9488 ft | 284 kts | 44° |
| 2026-04-23 12:41 | 26.79802 | -79.85098 | 10185 ft | 288 kts | 44° |
| 2026-04-23 12:42 | 26.81243 | -79.83473 | 10666 ft | 301 kts | 44° |
| 2026-04-23 12:42 | 26.82752 | -79.81771 | 10988 ft | 319 kts | 44° |
| 2026-04-23 12:42 | 26.84368 | -79.79946 | 11298 ft | 336 kts | 44° |
| 2026-04-23 12:42 | 26.86049 | -79.78046 | 11632 ft | 352 kts | 44° |
| 2026-04-23 12:43 | 26.87770 | -79.76096 | 12194 ft | 358 kts | 43° |
| 2026-04-23 12:43 | 26.89545 | -79.74081 | 12855 ft | 362 kts | 43° |
| 2026-04-23 12:43 | 26.91308 | -79.72081 | 13475 ft | 367 kts | 43° |
| 2026-04-23 12:43 | 26.93148 | -79.70053 | 14081 ft | 371 kts | 41° |
| 2026-04-23 12:44 | 26.95022 | -79.68073 | 14663 ft | 375 kts | 40° |
| 2026-04-23 12:44 | 26.96921 | -79.66078 | 15242 ft | 379 kts | 40° |
| 2026-04-23 12:44 | 26.98864 | -79.64035 | 15804 ft | 384 kts | 40° |
| 2026-04-23 12:44 | 27.00800 | -79.61996 | 16365 ft | 387 kts | 40° |
| 2026-04-23 12:45 | 27.02778 | -79.59909 | 16971 ft | 390 kts | 40° |
| 2026-04-23 12:45 | 27.04750 | -79.57826 | 17500 ft | 394 kts | 40° |
| 2026-04-23 12:45 | 27.06739 | -79.55730 | 18014 ft | 398 kts | 39° |
| 2026-04-23 12:45 | 27.08785 | -79.53572 | 18529 ft | 402 kts | 39° |
| 2026-04-23 12:46 | 27.10803 | -79.51441 | 19026 ft | 405 kts | 39° |
| 2026-04-23 12:46 | 27.12885 | -79.49242 | 19522 ft | 409 kts | 39° |
| 2026-04-23 12:46 | 27.14953 | -79.47053 | 20012 ft | 413 kts | 39° |
| 2026-04-23 12:46 | 27.17033 | -79.44851 | 20522 ft | 416 kts | 39° |
| 2026-04-23 12:47 | 27.19155 | -79.42602 | 21019 ft | 419 kts | 39° |
| 2026-04-23 12:47 | 27.21268 | -79.40363 | 21489 ft | 422 kts | 39° |
| 2026-04-23 12:47 | 27.23416 | -79.38085 | 21947 ft | 426 kts | 39° |
| 2026-04-23 12:47 | 27.25564 | -79.35805 | 22408 ft | 429 kts | 39° |
| 2026-04-23 12:48 | 27.27764 | -79.33469 | 22855 ft | 433 kts | 39° |
| 2026-04-23 12:48 | 27.29939 | -79.31158 | 23298 ft | 436 kts | 39° |
| 2026-04-23 12:48 | 27.32160 | -79.28799 | 23736 ft | 440 kts | 39° |
| 2026-04-23 12:48 | 27.34391 | -79.26423 | 24164 ft | 443 kts | 39° |
| 2026-04-23 12:49 | 27.36620 | -79.24048 | 24588 ft | 446 kts | 39° |
| 2026-04-23 12:49 | 27.38887 | -79.21632 | 25022 ft | 448 kts | 39° |
| 2026-04-23 12:49 | 27.41160 | -79.19212 | 25439 ft | 451 kts | 39° |
| 2026-04-23 12:49 | 27.43424 | -79.16797 | 25814 ft | 454 kts | 39° |
| 2026-04-23 12:50 | 27.45733 | -79.14331 | 26183 ft | 457 kts | 39° |
| 2026-04-23 12:50 | 27.48034 | -79.11872 | 26548 ft | 460 kts | 39° |
| 2026-04-23 12:50 | 27.50362 | -79.09383 | 26922 ft | 462 kts | 39° |
| 2026-04-23 12:50 | 27.52711 | -79.06870 | 27276 ft | 465 kts | 39° |
| 2026-04-23 12:51 | 27.55034 | -79.04385 | 27613 ft | 467 kts | 39° |
| 2026-04-23 12:51 | 27.57399 | -79.01849 | 28064 ft | 467 kts | 39° |
| 2026-04-23 12:51 | 27.59727 | -78.99351 | 28521 ft | 465 kts | 39° |
| 2026-04-23 12:51 | 27.62065 | -78.96845 | 28897 ft | 466 kts | 39° |
| 2026-04-23 12:52 | 27.64482 | -78.94392 | 29245 ft | 463 kts | 32° |
| 2026-04-23 12:52 | 27.67130 | -78.92451 | 29627 ft | 454 kts | 21° |
| 2026-04-23 12:52 | 27.70030 | -78.91051 | 30032 ft | 445 kts | 11° |
| 2026-04-23 12:52 | 27.72987 | -78.90246 | 30391 ft | 436 kts | 2° |
| 2026-04-23 12:53 | 27.76004 | -78.89791 | 30702 ft | 435 kts | 0° |
| 2026-04-23 12:53 | 27.79020 | -78.89397 | 30942 ft | 437 kts | 0° |
| 2026-04-23 12:53 | 27.82031 | -78.89006 | 31225 ft | 437 kts | 0° |
| 2026-04-23 12:53 | 27.85034 | -78.88605 | 31560 ft | 436 kts | 0° |
| 2026-04-23 12:54 | 27.88052 | -78.88195 | 31883 ft | 436 kts | 0° |
| 2026-04-23 12:54 | 27.91074 | -78.87779 | 32187 ft | 435 kts | 1° |
| 2026-04-23 12:54 | 27.94072 | -78.87363 | 32497 ft | 435 kts | 1° |
| 2026-04-23 12:54 | 27.97084 | -78.86940 | 32802 ft | 434 kts | 0° |
| 2026-04-23 12:55 | 28.00048 | -78.86523 | 33090 ft | 433 kts | 0° |
| 2026-04-23 12:55 | 28.03058 | -78.86101 | 33370 ft | 433 kts | 0° |
| 2026-04-23 12:55 | 28.06029 | -78.85683 | 33642 ft | 432 kts | 1° |
| 2026-04-23 12:55 | 28.09029 | -78.85262 | 33926 ft | 432 kts | 1° |
| 2026-04-23 12:56 | 28.12005 | -78.84842 | 34205 ft | 431 kts | 1° |
| 2026-04-23 12:56 | 28.14952 | -78.84425 | 34491 ft | 430 kts | 1° |
| 2026-04-23 12:56 | 28.17938 | -78.84003 | 34770 ft | 429 kts | 1° |
| 2026-04-23 12:56 | 28.20875 | -78.83588 | 35033 ft | 428 kts | 1° |
| 2026-04-23 12:57 | 28.23833 | -78.83170 | 35289 ft | 427 kts | 1° |
| 2026-04-23 12:57 | 28.26797 | -78.82750 | 35517 ft | 427 kts | 1° |
| 2026-04-23 12:57 | 28.29755 | -78.82332 | 35710 ft | 428 kts | 1° |
| 2026-04-23 12:57 | 28.32700 | -78.81915 | 35879 ft | 428 kts | 1° |
| 2026-04-23 12:58 | 28.35651 | -78.81496 | 36038 ft | 429 kts | 1° |
| 2026-04-23 12:58 | 28.38619 | -78.81076 | 36204 ft | 430 kts | 1° |
| 2026-04-23 12:58 | 28.41601 | -78.80653 | 36361 ft | 430 kts | 1° |
| 2026-04-23 12:58 | 28.44557 | -78.80234 | 36508 ft | 431 kts | 1° |
| 2026-04-23 12:59 | 28.47554 | -78.79808 | 36647 ft | 431 kts | 1° |
| 2026-04-23 12:59 | 28.50512 | -78.79388 | 36792 ft | 432 kts | 1° |
| 2026-04-23 12:59 | 28.53513 | -78.78960 | 36927 ft | 432 kts | 1° |
| 2026-04-23 12:59 | 28.56482 | -78.78536 | 37049 ft | 433 kts | 1° |
| 2026-04-23 13:00 | 28.59501 | -78.78107 | 37172 ft | 434 kts | 2° |
| 2026-04-23 13:00 | 28.62484 | -78.77683 | 37179 ft | 435 kts | 2° |
| 2026-04-23 13:00 | 28.68479 | -78.76827 | 37183 ft | 435 kts | 2° |
| 2026-04-23 13:01 | 28.74514 | -78.75964 | 37180 ft | 435 kts | 2° |
| 2026-04-23 13:01 | 28.80499 | -78.75108 | 37185 ft | 434 kts | 2° |
| 2026-04-23 13:02 | 28.86484 | -78.74250 | 37184 ft | 434 kts | 2° |
| 2026-04-23 13:02 | 28.92482 | -78.73392 | 37181 ft | 434 kts | 2° |
| 2026-04-23 13:03 | 28.98463 | -78.72532 | 37183 ft | 434 kts | 2° |
| 2026-04-23 13:03 | 29.04462 | -78.71670 | 37183 ft | 434 kts | 2° |
| 2026-04-23 13:04 | 29.10457 | -78.70807 | 37183 ft | 433 kts | 3° |
| 2026-04-23 13:04 | 29.16414 | -78.69947 | 37184 ft | 433 kts | 3° |
| 2026-04-23 13:05 | 29.22372 | -78.69087 | 37184 ft | 433 kts | 3° |
| 2026-04-23 13:05 | 29.28367 | -78.68220 | 37181 ft | 432 kts | 3° |
| 2026-04-23 13:06 | 29.37296 | -78.66617 | 37183 ft | 434 kts | 9° |
| 2026-04-23 13:07 | 29.43126 | -78.64722 | 37187 ft | 434 kts | 13° |
| 2026-04-23 13:07 | 29.48839 | -78.62651 | 37183 ft | 433 kts | 13° |
| 2026-04-23 13:08 | 29.54615 | -78.60556 | 37181 ft | 433 kts | 13° |
| 2026-04-23 13:08 | 29.60333 | -78.58485 | 37185 ft | 433 kts | 13° |
| 2026-04-23 13:09 | 29.66098 | -78.56396 | 37182 ft | 433 kts | 14° |
| 2026-04-23 13:09 | 29.71832 | -78.54318 | 37180 ft | 432 kts | 14° |
| 2026-04-23 13:10 | 29.77565 | -78.52235 | 37184 ft | 432 kts | 14° |
| 2026-04-23 13:10 | 29.83316 | -78.50147 | 37181 ft | 432 kts | 14° |
| 2026-04-23 13:11 | 29.89032 | -78.48070 | 37184 ft | 432 kts | 14° |
| 2026-04-23 13:11 | 29.94765 | -78.45982 | 37185 ft | 432 kts | 14° |
| 2026-04-23 13:12 | 30.00464 | -78.43901 | 37184 ft | 431 kts | 14° |
| 2026-04-23 13:12 | 30.06225 | -78.41795 | 37183 ft | 431 kts | 14° |
| 2026-04-23 13:13 | 30.11959 | -78.39803 | 37186 ft | 430 kts | 11° |
| 2026-04-23 13:13 | 30.17811 | -78.38482 | 37182 ft | 429 kts | 5° |
| 2026-04-23 13:14 | 30.23720 | -78.37588 | 37185 ft | 429 kts | 4° |
| 2026-04-23 13:14 | 30.29650 | -78.36710 | 37194 ft | 429 kts | 4° |
| 2026-04-23 13:15 | 30.35555 | -78.35826 | 37194 ft | 429 kts | 4° |
| 2026-04-23 13:15 | 30.40454 | -78.35089 | 37193 ft | 428 kts | 5° |
| 2026-04-23 13:16 | 30.47324 | -78.33639 | 37192 ft | 429 kts | 8° |
| 2026-04-23 13:16 | 30.53178 | -78.32266 | 37191 ft | 428 kts | 9° |
| 2026-04-23 13:17 | 30.59010 | -78.30900 | 37187 ft | 428 kts | 9° |
| 2026-04-23 13:17 | 30.64863 | -78.29530 | 37195 ft | 428 kts | 9° |
| 2026-04-23 13:18 | 30.70663 | -78.28172 | 37192 ft | 428 kts | 9° |
| 2026-04-23 13:18 | 30.76500 | -78.26802 | 37193 ft | 427 kts | 9° |
| 2026-04-23 13:19 | 30.82347 | -78.25427 | 37198 ft | 427 kts | 9° |
| 2026-04-23 13:19 | 30.88147 | -78.24062 | 37201 ft | 427 kts | 9° |
| 2026-04-23 13:20 | 30.93982 | -78.22691 | 37198 ft | 426 kts | 9° |
| 2026-04-23 13:20 | 30.99808 | -78.21393 | 37195 ft | 426 kts | 8° |
| 2026-04-23 13:21 | 31.05630 | -78.20107 | 37193 ft | 426 kts | 8° |
| 2026-04-23 13:21 | 31.11458 | -78.18813 | 37186 ft | 426 kts | 8° |
| 2026-04-23 13:22 | 31.17282 | -78.17515 | 37197 ft | 426 kts | 8° |
| 2026-04-23 13:22 | 31.23101 | -78.16216 | 37195 ft | 425 kts | 8° |
| 2026-04-23 13:23 | 31.28886 | -78.14922 | 37193 ft | 425 kts | 8° |
| 2026-04-23 13:23 | 31.34699 | -78.13620 | 37183 ft | 425 kts | 8° |
| 2026-04-23 13:24 | 31.40518 | -78.12317 | 37184 ft | 425 kts | 8° |
| 2026-04-23 13:24 | 31.46319 | -78.11194 | 37193 ft | 424 kts | 6° |
| 2026-04-23 13:25 | 31.52193 | -78.10198 | 37181 ft | 424 kts | 6° |
| 2026-04-23 13:25 | 31.58016 | -78.09208 | 37178 ft | 424 kts | 6° |
| 2026-04-23 13:26 | 31.63863 | -78.08209 | 37175 ft | 424 kts | 6° |
| 2026-04-23 13:26 | 31.69678 | -78.07213 | 37184 ft | 423 kts | 6° |
| 2026-04-23 13:27 | 31.75502 | -78.06214 | 37177 ft | 423 kts | 6° |
| 2026-04-23 13:27 | 31.81322 | -78.05214 | 37175 ft | 423 kts | 6° |
| 2026-04-23 13:28 | 31.87145 | -78.04213 | 37176 ft | 423 kts | 6° |
| 2026-04-23 13:28 | 31.92991 | -78.03206 | 37169 ft | 423 kts | 6° |
| 2026-04-23 13:29 | 31.98779 | -78.02209 | 37164 ft | 422 kts | 6° |
| 2026-04-23 13:29 | 32.04595 | -78.01205 | 37168 ft | 422 kts | 6° |
| 2026-04-23 13:30 | 32.10401 | -78.00201 | 37164 ft | 422 kts | 6° |
| 2026-04-23 13:30 | 32.16214 | -77.99195 | 37163 ft | 423 kts | 6° |
| 2026-04-23 13:31 | 32.22059 | -77.98181 | 37161 ft | 423 kts | 6° |
| 2026-04-23 13:31 | 32.27856 | -77.97175 | 37162 ft | 423 kts | 6° |
| 2026-04-23 13:32 | 32.33680 | -77.96164 | 37159 ft | 422 kts | 6° |
| 2026-04-23 13:32 | 32.39474 | -77.95156 | 37162 ft | 422 kts | 6° |
| 2026-04-23 13:33 | 32.45316 | -77.94138 | 37161 ft | 422 kts | 6° |
| 2026-04-23 13:33 | 32.51103 | -77.93128 | 37162 ft | 422 kts | 6° |
| 2026-04-23 13:34 | 32.56936 | -77.92109 | 37159 ft | 422 kts | 6° |
| 2026-04-23 13:34 | 32.62726 | -77.91096 | 37158 ft | 422 kts | 6° |
| 2026-04-23 13:35 | 32.68540 | -77.90078 | 37162 ft | 422 kts | 6° |
| 2026-04-23 13:35 | 32.74359 | -77.89058 | 37160 ft | 422 kts | 6° |
| 2026-04-23 13:36 | 32.80148 | -77.88042 | 37158 ft | 422 kts | 6° |
| 2026-04-23 13:36 | 32.85960 | -77.87021 | 37159 ft | 422 kts | 6° |
| 2026-04-23 13:37 | 32.91766 | -77.85998 | 37160 ft | 422 kts | 6° |
| 2026-04-23 13:37 | 32.97574 | -77.84973 | 37157 ft | 422 kts | 6° |
| 2026-04-23 13:38 | 33.03384 | -77.83948 | 37155 ft | 422 kts | 6° |
| 2026-04-23 13:38 | 33.09190 | -77.82922 | 37158 ft | 422 kts | 6° |
| 2026-04-23 13:39 | 33.14976 | -77.81898 | 37160 ft | 421 kts | 6° |
| 2026-04-23 13:39 | 33.20783 | -77.80868 | 37150 ft | 421 kts | 6° |
| 2026-04-23 13:40 | 33.26572 | -77.79841 | 37148 ft | 421 kts | 6° |
| 2026-04-23 13:40 | 33.32352 | -77.78814 | 37142 ft | 421 kts | 6° |
| 2026-04-23 13:41 | 33.38163 | -77.77779 | 37144 ft | 421 kts | 6° |
| 2026-04-23 13:41 | 33.43921 | -77.76752 | 37138 ft | 420 kts | 6° |
| 2026-04-23 13:42 | 33.49731 | -77.75716 | 37140 ft | 420 kts | 6° |
| 2026-04-23 13:42 | 33.55488 | -77.74686 | 37133 ft | 420 kts | 6° |
| 2026-04-23 13:43 | 33.61253 | -77.73651 | 37132 ft | 420 kts | 6° |
| 2026-04-23 13:43 | 33.67039 | -77.72613 | 37131 ft | 420 kts | 6° |
| 2026-04-23 13:44 | 33.72812 | -77.71461 | 37125 ft | 420 kts | 8° |
| 2026-04-23 13:44 | 33.78542 | -77.70195 | 37126 ft | 419 kts | 8° |
| 2026-04-23 13:45 | 33.83337 | -77.69140 | 37123 ft | 419 kts | 8° |
| 2026-04-23 13:45 | 33.90007 | -77.67680 | 37122 ft | 419 kts | 7° |
| 2026-04-23 13:46 | 33.95750 | -77.66424 | 37121 ft | 419 kts | 7° |
| 2026-04-23 13:46 | 34.01491 | -77.65167 | 37115 ft | 419 kts | 8° |
| 2026-04-23 13:47 | 34.07202 | -77.63916 | 37119 ft | 419 kts | 8° |
| 2026-04-23 13:47 | 34.12929 | -77.62659 | 37124 ft | 418 kts | 7° |
| 2026-04-23 13:48 | 34.18653 | -77.61400 | 37125 ft | 418 kts | 7° |
| 2026-04-23 13:48 | 34.24377 | -77.60141 | 37117 ft | 418 kts | 7° |
| 2026-04-23 13:49 | 34.30095 | -77.58881 | 37119 ft | 418 kts | 7° |
| 2026-04-23 13:49 | 34.35783 | -77.57624 | 37116 ft | 418 kts | 7° |
| 2026-04-23 13:50 | 34.41506 | -77.56357 | 37119 ft | 418 kts | 7° |
| 2026-04-23 13:50 | 34.47218 | -77.55050 | 37110 ft | 418 kts | 9° |
| 2026-04-23 13:51 | 34.52796 | -77.53183 | 37116 ft | 419 kts | 15° |
| 2026-04-23 13:51 | 34.58231 | -77.50575 | 37113 ft | 420 kts | 20° |
| 2026-04-23 13:52 | 34.63566 | -77.47644 | 37113 ft | 420 kts | 21° |
| 2026-04-23 13:52 | 34.68846 | -77.44724 | 37113 ft | 420 kts | 21° |
| 2026-04-23 13:53 | 34.74169 | -77.41779 | 37111 ft | 419 kts | 20° |
| 2026-04-23 13:53 | 34.79478 | -77.38841 | 37110 ft | 419 kts | 20° |
| 2026-04-23 13:54 | 34.84774 | -77.35905 | 37109 ft | 419 kts | 20° |
| 2026-04-23 13:54 | 34.90083 | -77.32959 | 37104 ft | 419 kts | 21° |
| 2026-04-23 13:55 | 34.95387 | -77.30011 | 37106 ft | 419 kts | 21° |
| 2026-04-23 13:55 | 35.00668 | -77.27071 | 37104 ft | 419 kts | 21° |
| 2026-04-23 13:56 | 35.05954 | -77.24126 | 37098 ft | 419 kts | 21° |
| 2026-04-23 13:56 | 35.11247 | -77.21170 | 37099 ft | 419 kts | 21° |
| 2026-04-23 13:57 | 35.16531 | -77.18217 | 37095 ft | 419 kts | 21° |
| 2026-04-23 13:57 | 35.21818 | -77.15256 | 37094 ft | 418 kts | 21° |
| 2026-04-23 13:58 | 35.27129 | -77.12278 | 37088 ft | 418 kts | 21° |
| 2026-04-23 13:58 | 35.32381 | -77.09331 | 37088 ft | 418 kts | 21° |
| 2026-04-23 13:59 | 35.37666 | -77.06360 | 37087 ft | 418 kts | 21° |
| 2026-04-23 13:59 | 35.42951 | -77.03384 | 37089 ft | 418 kts | 21° |
| 2026-04-23 14:00 | 35.47347 | -77.00906 | 37088 ft | 418 kts | 21° |
| 2026-04-23 14:00 | 35.53479 | -76.97443 | 37086 ft | 417 kts | 21° |
| 2026-04-23 14:01 | 35.58747 | -76.94464 | 37084 ft | 417 kts | 21° |
| 2026-04-23 14:01 | 35.64024 | -76.91476 | 37080 ft | 417 kts | 21° |
| 2026-04-23 14:02 | 35.69296 | -76.88485 | 37077 ft | 417 kts | 20° |
| 2026-04-23 14:02 | 35.74557 | -76.85497 | 37072 ft | 416 kts | 20° |
| 2026-04-23 14:03 | 35.79772 | -76.82532 | 37062 ft | 416 kts | 21° |
| 2026-04-23 14:03 | 35.85016 | -76.79545 | 37064 ft | 416 kts | 20° |
| 2026-04-23 14:04 | 35.90271 | -76.76546 | 37064 ft | 416 kts | 20° |
| 2026-04-23 14:04 | 35.95509 | -76.73553 | 37067 ft | 416 kts | 20° |
| 2026-04-23 14:05 | 36.00753 | -76.70555 | 37069 ft | 415 kts | 20° |
| 2026-04-23 14:05 | 36.05980 | -76.67561 | 37074 ft | 416 kts | 20° |
| 2026-04-23 14:06 | 36.11206 | -76.64563 | 37077 ft | 415 kts | 20° |
| 2026-04-23 14:06 | 36.16440 | -76.61555 | 37072 ft | 414 kts | 20° |
| 2026-04-23 14:07 | 36.21674 | -76.58540 | 37071 ft | 414 kts | 20° |
| 2026-04-23 14:07 | 36.29470 | -76.54047 | 37063 ft | 414 kts | 20° |
| 2026-04-23 14:08 | 36.34692 | -76.51030 | 37060 ft | 414 kts | 20° |
| 2026-04-23 14:08 | 36.39892 | -76.48022 | 37067 ft | 414 kts | 20° |
| 2026-04-23 14:09 | 36.45122 | -76.44991 | 37060 ft | 414 kts | 20° |
| 2026-04-23 14:09 | 36.50317 | -76.41979 | 37067 ft | 413 kts | 20° |
| 2026-04-23 14:10 | 36.55538 | -76.38943 | 37074 ft | 413 kts | 20° |
| 2026-04-23 14:10 | 36.60732 | -76.35921 | 37070 ft | 413 kts | 20° |
| 2026-04-23 14:11 | 36.65928 | -76.32892 | 37072 ft | 413 kts | 20° |
| 2026-04-23 14:11 | 36.71131 | -76.29855 | 37073 ft | 413 kts | 20° |
| 2026-04-23 14:12 | 36.76335 | -76.26812 | 37070 ft | 413 kts | 20° |
| 2026-04-23 14:12 | 36.81514 | -76.23780 | 37075 ft | 412 kts | 20° |
| 2026-04-23 14:13 | 36.86687 | -76.20747 | 37073 ft | 412 kts | 20° |
| 2026-04-23 14:13 | 36.91876 | -76.17700 | 37070 ft | 413 kts | 20° |
| 2026-04-23 14:14 | 36.97065 | -76.14647 | 37073 ft | 412 kts | 20° |
| 2026-04-23 14:14 | 37.02253 | -76.11591 | 37069 ft | 412 kts | 20° |
| 2026-04-23 14:15 | 37.07425 | -76.08540 | 37071 ft | 412 kts | 20° |
| 2026-04-23 14:15 | 37.12590 | -76.05489 | 37068 ft | 412 kts | 20° |
| 2026-04-23 14:16 | 37.17776 | -76.02421 | 37067 ft | 411 kts | 20° |
| 2026-04-23 14:16 | 37.22930 | -75.99367 | 37054 ft | 411 kts | 20° |
| 2026-04-23 14:17 | 37.28073 | -75.96312 | 37053 ft | 411 kts | 20° |
| 2026-04-23 14:17 | 37.33267 | -75.93224 | 37049 ft | 411 kts | 20° |
| 2026-04-23 14:18 | 37.38398 | -75.90170 | 37047 ft | 411 kts | 19° |
| 2026-04-23 14:18 | 37.43589 | -75.87076 | 37044 ft | 411 kts | 19° |
| 2026-04-23 14:19 | 37.48736 | -75.84003 | 37047 ft | 411 kts | 20° |
| 2026-04-23 14:19 | 37.53897 | -75.80913 | 37047 ft | 411 kts | 19° |
| 2026-04-23 14:20 | 37.59039 | -75.77834 | 37050 ft | 411 kts | 19° |
| 2026-04-23 14:20 | 37.64194 | -75.74738 | 37050 ft | 410 kts | 19° |
| 2026-04-23 14:21 | 37.69352 | -75.71639 | 37046 ft | 411 kts | 19° |
| 2026-04-23 14:21 | 37.74488 | -75.68544 | 37048 ft | 411 kts | 19° |
| 2026-04-23 14:22 | 37.79642 | -75.65434 | 37041 ft | 410 kts | 19° |
| 2026-04-23 14:22 | 37.84792 | -75.62318 | 37042 ft | 411 kts | 20° |
| 2026-04-23 14:23 | 37.89874 | -75.59055 | 37043 ft | 411 kts | 20° |
| 2026-04-23 14:23 | 37.94960 | -75.55748 | 37042 ft | 411 kts | 20° |
| 2026-04-23 14:24 | 38.00035 | -75.52447 | 37041 ft | 410 kts | 20° |
| 2026-04-23 14:24 | 38.05091 | -75.49157 | 37043 ft | 410 kts | 20° |
| 2026-04-23 14:25 | 38.10170 | -75.45851 | 37047 ft | 410 kts | 20° |
| 2026-04-23 14:25 | 38.15243 | -75.42542 | 37038 ft | 410 kts | 20° |
| 2026-04-23 14:26 | 38.20285 | -75.39251 | 37039 ft | 410 kts | 20° |
| 2026-04-23 14:26 | 38.25369 | -75.35925 | 37037 ft | 410 kts | 20° |
| 2026-04-23 14:27 | 38.30399 | -75.32630 | 37038 ft | 410 kts | 20° |
| 2026-04-23 14:27 | 38.35465 | -75.29306 | 37040 ft | 410 kts | 21° |
| 2026-04-23 14:28 | 38.40532 | -75.25977 | 37037 ft | 410 kts | 20° |
| 2026-04-23 14:28 | 38.45581 | -75.22652 | 37042 ft | 410 kts | 20° |
| 2026-04-23 14:29 | 38.50641 | -75.19319 | 37038 ft | 410 kts | 20° |
| 2026-04-23 14:29 | 38.55696 | -75.15980 | 37036 ft | 411 kts | 20° |
| 2026-04-23 14:30 | 38.60779 | -75.12618 | 37035 ft | 410 kts | 20° |
| 2026-04-23 14:30 | 38.65841 | -75.09267 | 36668 ft | 412 kts | 20° |
| 2026-04-23 14:31 | 38.68388 | -75.07574 | 36894 ft | 410 kts | 20° |
| 2026-04-23 14:31 | 38.70906 | -75.05902 | 36992 ft | 410 kts | 20° |
| 2026-04-23 14:31 | 38.75999 | -75.02521 | 37030 ft | 414 kts | 20° |
| 2026-04-23 14:32 | 38.81082 | -74.99137 | 37036 ft | 413 kts | 20° |
| 2026-04-23 14:32 | 38.86185 | -74.95733 | 37037 ft | 413 kts | 20° |
| 2026-04-23 14:33 | 38.91278 | -74.92330 | 37037 ft | 413 kts | 20° |
| 2026-04-23 14:33 | 38.96355 | -74.88928 | 37041 ft | 413 kts | 20° |
| 2026-04-23 14:34 | 39.01441 | -74.85519 | 37040 ft | 413 kts | 20° |
| 2026-04-23 14:34 | 39.06502 | -74.82065 | 37043 ft | 415 kts | 22° |
| 2026-04-23 14:35 | 39.11366 | -74.78057 | 37038 ft | 416 kts | 27° |
| 2026-04-23 14:35 | 39.15910 | -74.73525 | 37035 ft | 415 kts | 30° |
| 2026-04-23 14:36 | 39.20419 | -74.68855 | 37027 ft | 415 kts | 30° |
| 2026-04-23 14:36 | 39.24892 | -74.64216 | 37029 ft | 414 kts | 30° |
| 2026-04-23 14:37 | 39.29378 | -74.59553 | 37029 ft | 415 kts | 30° |
| 2026-04-23 14:37 | 39.33855 | -74.54892 | 37030 ft | 414 kts | 30° |
| 2026-04-23 14:38 | 39.38322 | -74.50236 | 37027 ft | 414 kts | 30° |
| 2026-04-23 14:38 | 39.42790 | -74.45571 | 37028 ft | 414 kts | 30° |
| 2026-04-23 14:39 | 39.47263 | -74.40891 | 37026 ft | 413 kts | 30° |
| 2026-04-23 14:39 | 39.51730 | -74.36208 | 37025 ft | 414 kts | 30° |
| 2026-04-23 14:40 | 39.56184 | -74.31534 | 36918 ft | 415 kts | 30° |
| 2026-04-23 14:40 | 39.58429 | -74.29173 | 36611 ft | 413 kts | 30° |
| 2026-04-23 14:40 | 39.60629 | -74.26856 | 36347 ft | 410 kts | 31° |
| 2026-04-23 14:41 | 39.62829 | -74.24535 | 36079 ft | 408 kts | 30° |
| 2026-04-23 14:41 | 39.65023 | -74.22221 | 35642 ft | 409 kts | 30° |
| 2026-04-23 14:41 | 39.67247 | -74.19879 | 35052 ft | 410 kts | 30° |
| 2026-04-23 14:41 | 39.69436 | -74.17568 | 34381 ft | 412 kts | 30° |
| 2026-04-23 14:42 | 39.71650 | -74.15236 | 33644 ft | 413 kts | 30° |
| 2026-04-23 14:42 | 39.73887 | -74.12872 | 32977 ft | 412 kts | 30° |
| 2026-04-23 14:42 | 39.76088 | -74.10541 | 32300 ft | 412 kts | 30° |
| 2026-04-23 14:42 | 39.78306 | -74.08192 | 31618 ft | 411 kts | 30° |
| 2026-04-23 14:43 | 39.80510 | -74.05856 | 30945 ft | 409 kts | 30° |
| 2026-04-23 14:43 | 39.82679 | -74.03552 | 30259 ft | 409 kts | 31° |
| 2026-04-23 14:43 | 39.84888 | -74.01205 | 29510 ft | 409 kts | 31° |
| 2026-04-23 14:43 | 39.87071 | -73.98886 | 28827 ft | 408 kts | 31° |
| 2026-04-23 14:44 | 39.89256 | -73.96555 | 28332 ft | 403 kts | 30° |
| 2026-04-23 14:44 | 39.91388 | -73.94281 | 27854 ft | 398 kts | 30° |
| 2026-04-23 14:44 | 39.93519 | -73.92008 | 27347 ft | 394 kts | 30° |
| 2026-04-23 14:44 | 39.95636 | -73.89751 | 26846 ft | 391 kts | 30° |
| 2026-04-23 14:45 | 39.97017 | -73.88273 | 26513 ft | 389 kts | 30° |
| 2026-04-23 14:45 | 39.99792 | -73.85308 | 25860 ft | 385 kts | 30° |
| 2026-04-23 14:45 | 40.01834 | -73.83124 | 25367 ft | 383 kts | 30° |
| 2026-04-23 14:45 | 40.03896 | -73.80918 | 24867 ft | 381 kts | 30° |
| 2026-04-23 14:46 | 40.05931 | -73.78741 | 24384 ft | 379 kts | 30° |
| 2026-04-23 14:46 | 40.07939 | -73.76592 | 23902 ft | 378 kts | 30° |
| 2026-04-23 14:46 | 40.09967 | -73.74419 | 23427 ft | 376 kts | 30° |
| 2026-04-23 14:46 | 40.11994 | -73.72243 | 22946 ft | 375 kts | 30° |
| 2026-04-23 14:47 | 40.13979 | -73.70110 | 22465 ft | 375 kts | 30° |
| 2026-04-23 14:47 | 40.16003 | -73.67933 | 21972 ft | 375 kts | 30° |
| 2026-04-23 14:47 | 40.17991 | -73.65795 | 21503 ft | 374 kts | 30° |
| 2026-04-23 14:47 | 40.19994 | -73.63639 | 21005 ft | 373 kts | 30° |
| 2026-04-23 14:48 | 40.21974 | -73.61504 | 20536 ft | 372 kts | 31° |
| 2026-04-23 14:48 | 40.23981 | -73.59340 | 20032 ft | 371 kts | 31° |
| 2026-04-23 14:48 | 40.25950 | -73.57213 | 19556 ft | 370 kts | 31° |
| 2026-04-23 14:48 | 40.27928 | -73.55073 | 19070 ft | 369 kts | 31° |
| 2026-04-23 14:49 | 40.29900 | -73.52940 | 18588 ft | 368 kts | 31° |
| 2026-04-23 14:49 | 40.31879 | -73.50797 | 18108 ft | 367 kts | 31° |
| 2026-04-23 14:49 | 40.33834 | -73.48683 | 17618 ft | 366 kts | 31° |
| 2026-04-23 14:49 | 40.35883 | -73.46745 | 17118 ft | 358 kts | 22° |
| 2026-04-23 14:50 | 40.38082 | -73.45316 | 16787 ft | 350 kts | 13° |
| 2026-04-23 14:50 | 40.40369 | -73.44345 | 16788 ft | 348 kts | 8° |
| 2026-04-23 14:50 | 40.42695 | -73.43503 | 16797 ft | 347 kts | 7° |
| 2026-04-23 14:50 | 40.45044 | -73.42672 | 16826 ft | 348 kts | 7° |
| 2026-04-23 14:51 | 40.47370 | -73.41849 | 16839 ft | 348 kts | 7° |
| 2026-04-23 14:51 | 40.49713 | -73.41013 | 16854 ft | 347 kts | 7° |
| 2026-04-23 14:51 | 40.52040 | -73.40182 | 16871 ft | 347 kts | 7° |
| 2026-04-23 14:51 | 40.54355 | -73.39352 | 16884 ft | 348 kts | 8° |
| 2026-04-23 14:52 | 40.56704 | -73.38507 | 16903 ft | 347 kts | 8° |
| 2026-04-23 14:52 | 40.59044 | -73.37669 | 16925 ft | 348 kts | 7° |
| 2026-04-23 14:52 | 40.61344 | -73.36838 | 16935 ft | 347 kts | 7° |
| 2026-04-23 14:52 | 40.63679 | -73.35995 | 16927 ft | 347 kts | 7° |
| 2026-04-23 14:53 | 40.66030 | -73.35149 | 16494 ft | 350 kts | 7° |
| 2026-04-23 14:53 | 40.68348 | -73.34313 | 15934 ft | 349 kts | 8° |
| 2026-04-23 14:53 | 40.70666 | -73.33472 | 15640 ft | 339 kts | 8° |
| 2026-04-23 14:53 | 40.72905 | -73.32656 | 15421 ft | 328 kts | 8° |
| 2026-04-23 14:54 | 40.75060 | -73.31871 | 15280 ft | 315 kts | 7° |
| 2026-04-23 14:54 | 40.77134 | -73.31115 | 15083 ft | 305 kts | 9° |
| 2026-04-23 14:54 | 40.79044 | -73.29894 | 14941 ft | 310 kts | 28° |
| 2026-04-23 14:54 | 40.80521 | -73.27825 | 14858 ft | 321 kts | 45° |
| 2026-04-23 14:55 | 40.81764 | -73.25367 | 14447 ft | 324 kts | 48° |
| 2026-04-23 14:55 | 40.82971 | -73.22838 | 14051 ft | 322 kts | 49° |
| 2026-04-23 14:55 | 40.84153 | -73.20370 | 13673 ft | 320 kts | 48° |
| 2026-04-23 14:55 | 40.85344 | -73.17910 | 13307 ft | 317 kts | 48° |
| 2026-04-23 14:56 | 40.86537 | -73.15468 | 12951 ft | 315 kts | 47° |
| 2026-04-23 14:56 | 40.87713 | -73.13070 | 12581 ft | 313 kts | 48° |
| 2026-04-23 14:56 | 40.88896 | -73.10661 | 12214 ft | 311 kts | 48° |
| 2026-04-23 14:56 | 40.90060 | -73.08289 | 11825 ft | 310 kts | 48° |
| 2026-04-23 14:57 | 40.91228 | -73.05900 | 11446 ft | 308 kts | 47° |
| 2026-04-23 14:57 | 40.92388 | -73.03529 | 11080 ft | 305 kts | 48° |
| 2026-04-23 14:57 | 40.93521 | -73.01208 | 10880 ft | 298 kts | 47° |
| 2026-04-23 14:57 | 40.94656 | -72.98886 | 10902 ft | 299 kts | 47° |
| 2026-04-23 14:58 | 40.95778 | -72.96600 | 10927 ft | 299 kts | 47° |
| 2026-04-23 14:58 | 40.96906 | -72.94294 | 10941 ft | 300 kts | 47° |
| 2026-04-23 14:58 | 40.98040 | -72.91966 | 10940 ft | 300 kts | 47° |
| 2026-04-23 14:58 | 40.99163 | -72.89659 | 10708 ft | 302 kts | 47° |
| 2026-04-23 14:59 | 41.00303 | -72.87320 | 10315 ft | 301 kts | 48° |
| 2026-04-23 14:59 | 41.01442 | -72.85013 | 9947 ft | 296 kts | 44° |
| 2026-04-23 14:59 | 41.02906 | -72.83336 | 9577 ft | 269 kts | 14° |
| 2026-04-23 14:59 | 41.04648 | -72.82896 | 9225 ft | 250 kts | 350° |
| 2026-04-23 15:00 | 41.06333 | -72.83292 | 8885 ft | 244 kts | 343° |
| 2026-04-23 15:00 | 41.07997 | -72.83750 | 8538 ft | 242 kts | 344° |
| 2026-04-23 15:00 | 41.09638 | -72.84185 | 8193 ft | 240 kts | 344° |
| 2026-04-23 15:00 | 41.11279 | -72.84611 | 7857 ft | 239 kts | 344° |
| 2026-04-23 15:01 | 41.12896 | -72.85040 | 7525 ft | 237 kts | 342° |
| 2026-04-23 15:01 | 41.14341 | -72.85960 | 7158 ft | 233 kts | 319° |
| 2026-04-23 15:01 | 41.15329 | -72.87652 | 6832 ft | 233 kts | 297° |
| 2026-04-23 15:01 | 41.15703 | -72.89724 | 6592 ft | 235 kts | 278° |
| 2026-04-23 15:02 | 41.15734 | -72.91183 | 6380 ft | 234 kts | 277° |
| 2026-04-23 15:02 | 41.15790 | -72.93999 | 6043 ft | 228 kts | 277° |
| 2026-04-23 15:02 | 41.15824 | -72.96078 | 5969 ft | 226 kts | 275° |
| 2026-04-23 15:02 | 41.15509 | -72.98154 | 5843 ft | 237 kts | 253° |
| 2026-04-23 15:03 | 41.14759 | -73.00121 | 5766 ft | 240 kts | 248° |
| 2026-04-23 15:03 | 41.13947 | -73.02073 | 5722 ft | 239 kts | 248° |
| 2026-04-23 15:03 | 41.13159 | -73.04015 | 5610 ft | 240 kts | 249° |
| 2026-04-23 15:03 | 41.12399 | -73.05952 | 5476 ft | 239 kts | 249° |
| 2026-04-23 15:04 | 41.11640 | -73.07918 | 5343 ft | 238 kts | 250° |
| 2026-04-23 15:04 | 41.10899 | -73.09875 | 5217 ft | 238 kts | 250° |
| 2026-04-23 15:04 | 41.10160 | -73.11839 | 5083 ft | 238 kts | 250° |
| 2026-04-23 15:04 | 41.09433 | -73.13785 | 4962 ft | 237 kts | 250° |
| 2026-04-23 15:05 | 41.08695 | -73.15756 | 4835 ft | 236 kts | 250° |
| 2026-04-23 15:05 | 41.07977 | -73.17685 | 4710 ft | 236 kts | 250° |
| 2026-04-23 15:05 | 41.07249 | -73.19640 | 4579 ft | 237 kts | 250° |
| 2026-04-23 15:05 | 41.06515 | -73.21608 | 4450 ft | 236 kts | 250° |
| 2026-04-23 15:06 | 41.05793 | -73.23550 | 4316 ft | 236 kts | 249° |
| 2026-04-23 15:06 | 41.05077 | -73.25465 | 4141 ft | 231 kts | 249° |
| 2026-04-23 15:06 | 41.04365 | -73.27368 | 3937 ft | 225 kts | 249° |
| 2026-04-23 15:06 | 41.03677 | -73.29208 | 3786 ft | 224 kts | 249° |
| 2026-04-23 15:07 | 41.02990 | -73.31053 | 3658 ft | 224 kts | 249° |
| 2026-04-23 15:07 | 41.02298 | -73.32910 | 3527 ft | 224 kts | 249° |
| 2026-04-23 15:07 | 41.01607 | -73.34759 | 3400 ft | 224 kts | 249° |
| 2026-04-23 15:07 | 41.00917 | -73.36603 | 3274 ft | 224 kts | 248° |
| 2026-04-23 15:08 | 41.00232 | -73.38430 | 3147 ft | 223 kts | 248° |
| 2026-04-23 15:08 | 40.99542 | -73.40273 | 3021 ft | 223 kts | 249° |
| 2026-04-23 15:08 | 40.98852 | -73.42112 | 2929 ft | 223 kts | 249° |
| 2026-04-23 15:09 | 40.97466 | -73.45808 | 2718 ft | 223 kts | 249° |
| 2026-04-23 15:09 | 40.96779 | -73.47638 | 2592 ft | 223 kts | 248° |
| 2026-04-23 15:09 | 40.96098 | -73.49447 | 2421 ft | 218 kts | 248° |
| 2026-04-23 15:09 | 40.95426 | -73.51229 | 2223 ft | 213 kts | 248° |
| 2026-04-23 15:10 | 40.94989 | -73.52393 | 2093 ft | 209 kts | 249° |
| 2026-04-23 15:10 | 40.94313 | -73.54681 | 1965 ft | 193 kts | 256° |
| 2026-04-23 15:10 | 40.93897 | -73.56299 | 1945 ft | 179 kts | 256° |
| 2026-04-23 15:10 | 40.93588 | -73.57877 | 1948 ft | 173 kts | 270° |
| 2026-04-23 15:11 | 40.93684 | -73.59418 | 1959 ft | 169 kts | 288° |
| 2026-04-23 15:11 | 40.94174 | -73.60814 | 1952 ft | 168 kts | 314° |
| 2026-04-23 15:11 | 40.95078 | -73.61790 | 1971 ft | 168 kts | 326° |
| 2026-04-23 15:11 | 40.96086 | -73.62584 | 1967 ft | 167 kts | 329° |
| 2026-04-23 15:12 | 40.97104 | -73.63335 | 1964 ft | 168 kts | 329° |
| 2026-04-23 15:12 | 40.98114 | -73.64092 | 1965 ft | 167 kts | 329° |
| 2026-04-23 15:12 | 40.99128 | -73.64869 | 2004 ft | 166 kts | 328° |
| 2026-04-23 15:12 | 41.00129 | -73.65640 | 1885 ft | 167 kts | 328° |
| 2026-04-23 15:13 | 41.01126 | -73.66406 | 1527 ft | 161 kts | 328° |
| 2026-04-23 15:13 | 41.02050 | -73.67112 | 1299 ft | 149 kts | 328° |
| 2026-04-23 15:13 | 41.02914 | -73.67774 | 1080 ft | 138 kts | 327° |
| 2026-04-23 15:13 | 41.03730 | -73.68399 | 924 ft | 133 kts | 327° |
| 2026-04-23 15:14 | 41.04530 | -73.69011 | 743 ft | 131 kts | 328° |
| 2026-04-23 15:14 | 41.05321 | -73.69604 | 553 ft | 129 kts | 326° |
| 2026-04-23 15:14 | 41.06083 | -73.70207 | 395 ft | 127 kts | 326° |
| 2026-04-23 15:14 | 41.06749 | -73.70724 | 405 ft | 77 kts | 335° |
| 2026-04-23 15:15 | 41.07051 | -73.70950 | 414 ft | 25 kts | 331° |
| 2026-04-23 15:15 | 41.07167 | -73.70929 | 418 ft | 15 kts | 30° |
| 2026-04-23 15:15 | 41.07206 | -73.70901 | 420 ft | 0 kts | 27° |
| 2026-04-23 15:16 | 41.07207 | -73.70853 | 420 ft | 8 kts | 135° |
| 2026-04-23 15:16 | 41.07132 | -73.70802 | 417 ft | 14 kts | 151° |
| 2026-04-23 15:16 | 41.07035 | -73.70729 | 415 ft | 17 kts | 148° |
| 2026-04-23 15:16 | 41.06930 | -73.70642 | 411 ft | 17 kts | 149° |
| 2026-04-23 15:17 | 41.06849 | -73.70579 | 408 ft | 11 kts | 146° |
| 2026-04-23 15:17 | 41.06830 | -73.70520 | 408 ft | 6 kts | 72° |
| 2026-04-23 15:17 | 41.06839 | -73.70494 | 408 ft | 0 kts | 62° |